createdAt,value
2017-12-04T00:00:33.961Z,33.90
2017-12-04T00:01:33.990Z,32.10
2017-12-04T00:02:34.041Z,32.60
2017-12-04T00:03:34.056Z,34.40
2017-12-04T00:04:34.082Z,33.50
2017-12-04T00:05:34.448Z,32.60
2017-12-04T00:06:34.147Z,32.10
2017-12-04T00:07:34.279Z,35.40
2017-12-04T00:08:34.204Z,34.60
2017-12-04T00:09:34.237Z,31.60
2017-12-04T00:10:34.266Z,31.90
2017-12-04T00:11:34.298Z,31.30
2017-12-04T00:12:34.327Z,34.40
2017-12-04T00:13:34.356Z,31.70
2017-12-04T00:14:34.387Z,32.00
2017-12-04T00:15:34.417Z,30.20
2017-12-04T00:16:34.483Z,31.70
2017-12-04T00:17:34.476Z,31.40
2017-12-04T00:18:34.514Z,30.30
2017-12-04T00:19:34.538Z,30.60
2017-12-04T00:20:34.568Z,30.80
2017-12-04T00:21:34.610Z,31.00
2017-12-04T00:22:34.627Z,29.70
2017-12-04T00:23:34.659Z,30.90
2017-12-04T00:24:34.689Z,30.60
2017-12-04T00:25:34.729Z,29.90
2017-12-04T00:26:34.750Z,29.40
2017-12-04T00:27:34.783Z,32.10
2017-12-04T00:28:34.811Z,33.40
2017-12-04T00:29:34.840Z,28.70
2017-12-04T00:30:34.876Z,30.60
2017-12-04T00:31:34.903Z,29.80
2017-12-04T00:32:34.930Z,28.60
2017-12-04T00:33:34.964Z,29.30
2017-12-04T00:34:35.049Z,32.70
2017-12-04T00:35:35.035Z,29.50
2017-12-04T00:36:35.054Z,30.10
2017-12-04T00:37:35.083Z,29.90
2017-12-04T00:38:35.119Z,26.90
2017-12-04T00:39:35.151Z,30.60
2017-12-04T00:40:35.175Z,28.50
2017-12-04T00:41:35.204Z,30.90
2017-12-04T00:42:35.246Z,29.60
2017-12-04T00:43:35.266Z,30.70
2017-12-04T00:44:35.299Z,28.40
2017-12-04T00:45:35.327Z,31.60
2017-12-04T00:46:35.359Z,30.10
2017-12-04T00:47:35.386Z,29.50
2017-12-04T00:48:35.415Z,28.70
2017-12-04T00:49:35.450Z,28.20
2017-12-04T00:50:35.480Z,29.80
2017-12-04T00:51:35.511Z,26.50
2017-12-04T00:52:35.539Z,28.70
2017-12-04T00:53:35.570Z,27.20
2017-12-04T00:54:35.605Z,29.50
2017-12-04T00:55:35.632Z,27.60
2017-12-04T00:56:35.709Z,29.60
2017-12-04T00:57:35.693Z,26.00
2017-12-04T00:58:35.732Z,26.40
2017-12-04T00:59:35.755Z,28.00
2017-12-04T01:00:35.782Z,26.60
2017-12-04T01:01:35.815Z,27.10
2017-12-04T01:02:35.845Z,26.60
2017-12-04T01:03:35.877Z,28.50
2017-12-04T01:04:35.909Z,24.70
2017-12-04T01:05:35.999Z,23.70
2017-12-04T01:06:35.970Z,26.00
2017-12-04T01:07:36.013Z,28.80
2017-12-04T01:08:36.047Z,27.80
2017-12-04T01:09:36.059Z,26.20
2017-12-04T01:10:36.089Z,27.90
2017-12-04T01:11:36.120Z,28.20
2017-12-04T01:12:36.151Z,27.60
2017-12-04T01:13:36.183Z,27.80
2017-12-04T01:14:36.213Z,28.30
2017-12-04T01:15:36.243Z,28.50
2017-12-04T01:16:36.678Z,27.00
2017-12-04T01:17:36.306Z,31.00
2017-12-04T01:18:36.391Z,26.50
2017-12-04T01:19:36.365Z,28.70
2017-12-04T01:20:36.396Z,29.70
2017-12-04T01:21:36.432Z,30.50
2017-12-04T01:22:36.461Z,31.60
2017-12-04T01:23:36.492Z,26.10
2017-12-04T01:24:36.519Z,29.50
2017-12-04T01:25:36.551Z,30.30
2017-12-04T01:26:36.583Z,31.40
2017-12-04T01:27:36.612Z,29.20
2017-12-04T01:28:36.640Z,30.10
2017-12-04T01:29:36.675Z,29.80
2017-12-04T01:30:36.706Z,32.00
2017-12-04T01:31:36.734Z,29.40
2017-12-04T01:32:36.765Z,30.30
2017-12-04T01:33:36.796Z,29.30
2017-12-04T01:34:36.830Z,31.00
2017-12-04T01:35:36.857Z,29.10
2017-12-04T01:36:36.891Z,30.20
2017-12-04T01:37:36.917Z,28.90
2017-12-04T01:38:36.954Z,29.90
2017-12-04T01:39:36.981Z,34.90
2017-12-04T01:40:37.011Z,30.60
2017-12-04T01:41:37.042Z,30.60
2017-12-04T01:42:37.072Z,28.00
2017-12-04T01:43:37.102Z,29.80
2017-12-04T01:44:37.132Z,27.90
2017-12-04T01:45:37.164Z,28.20
2017-12-04T01:46:37.194Z,27.00
2017-12-04T01:47:37.225Z,28.00
2017-12-04T01:48:37.262Z,26.70
2017-12-04T01:49:37.287Z,31.10
2017-12-04T01:50:37.318Z,28.40
2017-12-04T01:51:37.349Z,27.10
2017-12-04T01:52:37.377Z,28.30
2017-12-04T01:53:37.409Z,28.80
2017-12-04T01:54:37.443Z,29.10
2017-12-04T01:55:37.475Z,29.80
2017-12-04T01:56:37.506Z,28.80
2017-12-04T01:57:37.535Z,32.30
2017-12-04T01:58:37.564Z,30.10
2017-12-04T01:59:37.596Z,27.00
2017-12-04T02:00:37.630Z,29.90
2017-12-04T02:01:37.658Z,28.40
2017-12-04T02:02:37.691Z,29.00
2017-12-04T02:03:37.725Z,29.70
2017-12-04T02:04:37.753Z,28.90
2017-12-04T02:05:37.845Z,30.00
2017-12-04T02:06:37.818Z,27.60
2017-12-04T02:07:37.910Z,28.50
2017-12-04T02:08:37.873Z,30.90
2017-12-04T02:09:37.905Z,28.80
2017-12-04T02:10:37.934Z,28.50
2017-12-04T02:11:37.970Z,29.50
2017-12-04T02:12:37.995Z,28.00
2017-12-04T02:13:38.024Z,29.30
2017-12-04T02:14:38.054Z,30.40
2017-12-04T02:15:38.086Z,27.60
2017-12-04T02:16:38.129Z,26.40
2017-12-04T02:17:38.146Z,32.60
2017-12-04T02:18:38.179Z,29.10
2017-12-04T02:19:38.209Z,27.70
2017-12-04T02:20:38.239Z,27.70
2017-12-04T02:21:38.270Z,28.20
2017-12-04T02:22:38.303Z,27.60
2017-12-04T02:23:38.335Z,29.20
2017-12-04T02:24:38.364Z,28.50
2017-12-04T02:25:38.406Z,27.10
2017-12-04T02:26:38.425Z,26.20
2017-12-04T02:27:38.459Z,24.70
2017-12-04T02:28:38.485Z,27.80
2017-12-04T02:29:38.515Z,27.80
2017-12-04T02:30:38.546Z,28.00
2017-12-04T02:31:38.582Z,28.80
2017-12-04T02:32:38.608Z,27.70
2017-12-04T02:33:38.637Z,26.80
2017-12-04T02:34:38.669Z,28.60
2017-12-04T02:35:38.701Z,26.20
2017-12-04T02:36:38.733Z,29.60
2017-12-04T02:37:38.761Z,26.50
2017-12-04T02:38:38.791Z,27.60
2017-12-04T02:39:38.827Z,25.80
2017-12-04T02:40:38.856Z,27.30
2017-12-04T02:41:38.885Z,26.00
2017-12-04T02:42:38.917Z,25.20
2017-12-04T02:43:38.947Z,27.70
2017-12-04T02:44:38.976Z,26.40
2017-12-04T02:45:39.007Z,27.10
2017-12-04T02:46:39.042Z,25.90
2017-12-04T02:47:39.069Z,23.90
2017-12-04T02:48:39.099Z,26.90
2017-12-04T02:49:39.129Z,23.60
2017-12-04T02:50:39.158Z,25.30
2017-12-04T02:51:39.189Z,26.40
2017-12-04T02:52:39.220Z,24.20
2017-12-04T02:53:39.251Z,24.40
2017-12-04T02:54:39.281Z,24.90
2017-12-04T02:55:39.317Z,25.50
2017-12-04T02:56:39.347Z,24.00
2017-12-04T02:57:39.371Z,24.20
2017-12-04T02:58:39.406Z,28.20
2017-12-04T02:59:39.449Z,23.70
2017-12-04T03:00:39.466Z,24.40
2017-12-04T03:01:39.500Z,25.20
2017-12-04T03:02:39.527Z,23.60
2017-12-04T03:03:39.559Z,26.00
2017-12-04T03:04:39.586Z,23.40
2017-12-04T03:05:39.716Z,25.40
2017-12-04T03:06:39.647Z,24.90
2017-12-04T03:07:39.701Z,24.00
2017-12-04T03:08:39.710Z,25.50
2017-12-04T03:09:39.741Z,25.40
2017-12-04T03:10:39.772Z,26.50
2017-12-04T03:11:39.803Z,26.60
2017-12-04T03:12:39.831Z,25.70
2017-12-04T03:13:39.867Z,27.40
2017-12-04T03:14:39.895Z,25.30
2017-12-04T03:15:39.925Z,27.00
2017-12-04T03:16:40.044Z,26.80
2017-12-04T03:17:39.989Z,26.70
2017-12-04T03:18:40.019Z,25.30
2017-12-04T03:19:40.048Z,26.90
2017-12-04T03:20:40.080Z,25.10
2017-12-04T03:21:40.108Z,26.30
2017-12-04T03:22:40.139Z,25.10
2017-12-04T03:23:40.174Z,25.50
2017-12-04T03:24:40.201Z,25.50
2017-12-04T03:25:40.361Z,24.60
2017-12-04T03:26:40.269Z,25.90
2017-12-04T03:27:40.345Z,27.60
2017-12-04T03:28:40.323Z,27.00
2017-12-04T03:29:40.354Z,27.70
2017-12-04T03:30:40.392Z,27.30
2017-12-04T03:31:40.419Z,28.70
2017-12-04T03:32:40.449Z,25.10
2017-12-04T03:33:40.478Z,27.20
2017-12-04T03:34:40.509Z,25.40
2017-12-04T03:35:40.539Z,27.10
2017-12-04T03:36:40.576Z,28.80
2017-12-04T03:37:40.600Z,28.70
2017-12-04T03:38:40.631Z,28.50
2017-12-04T03:39:40.662Z,27.20
2017-12-04T03:40:40.697Z,29.20
2017-12-04T03:41:40.725Z,28.20
2017-12-04T03:42:40.756Z,26.20
2017-12-04T03:43:40.785Z,28.40
2017-12-04T03:44:40.814Z,28.50
2017-12-04T03:45:40.847Z,28.70
2017-12-04T03:46:40.880Z,27.00
2017-12-04T03:47:40.912Z,31.20
2017-12-04T03:48:40.940Z,26.90
2017-12-04T03:49:40.990Z,32.70
2017-12-04T03:50:41.003Z,26.50
2017-12-04T03:51:41.047Z,30.30
2017-12-04T03:52:41.062Z,29.70
2017-12-04T03:53:41.093Z,30.00
2017-12-04T03:54:41.123Z,29.20
2017-12-04T03:55:41.158Z,25.20
2017-12-04T03:56:41.191Z,24.70
2017-12-04T03:57:41.221Z,27.50
2017-12-04T03:58:41.251Z,26.80
2017-12-04T03:59:41.283Z,27.40
2017-12-04T04:00:41.309Z,30.10
2017-12-04T04:01:41.346Z,26.10
2017-12-04T04:02:41.378Z,31.30
2017-12-04T04:03:41.401Z,25.60
2017-12-04T04:04:41.433Z,29.60
2017-12-04T04:05:41.464Z,26.90
2017-12-04T04:06:41.494Z,28.50
2017-12-04T04:07:41.524Z,28.20
2017-12-04T04:08:41.555Z,28.40
2017-12-04T04:09:41.591Z,30.10
2017-12-04T04:10:41.619Z,26.50
2017-12-04T04:11:41.651Z,25.80
2017-12-04T04:12:41.677Z,27.20
2017-12-04T04:13:41.720Z,24.70
2017-12-04T04:14:42.069Z,25.80
2017-12-04T04:15:41.773Z,25.60
2017-12-04T04:16:41.805Z,25.60
2017-12-04T04:17:41.832Z,23.70
2017-12-04T04:18:41.864Z,25.90
2017-12-04T04:19:41.894Z,23.90
2017-12-04T04:20:41.925Z,24.50
2017-12-04T04:21:41.957Z,21.00
2017-12-04T04:22:41.994Z,20.70
2017-12-04T04:23:42.018Z,23.10
2017-12-04T04:24:42.048Z,22.80
2017-12-04T04:25:42.101Z,22.00
2017-12-04T04:26:42.107Z,22.20
2017-12-04T04:27:42.143Z,22.90
2017-12-04T04:28:42.174Z,20.10
2017-12-04T04:29:42.204Z,22.00
2017-12-04T04:30:42.233Z,22.40
2017-12-04T04:31:42.271Z,20.20
2017-12-04T04:32:42.294Z,22.40
2017-12-04T04:33:42.326Z,21.40
2017-12-04T04:34:42.373Z,19.30
2017-12-04T04:35:42.386Z,19.40
2017-12-04T04:36:42.469Z,21.30
2017-12-04T04:37:42.448Z,21.20
2017-12-04T04:38:42.482Z,19.30
2017-12-04T04:39:42.509Z,20.70
2017-12-04T04:40:42.541Z,22.80
2017-12-04T04:41:42.574Z,21.50
2017-12-04T04:42:42.603Z,23.30
2017-12-04T04:43:42.633Z,23.10
2017-12-04T04:44:42.663Z,22.30
2017-12-04T04:45:42.706Z,23.10
2017-12-04T04:46:42.726Z,21.90
2017-12-04T04:47:42.768Z,21.10
2017-12-04T04:48:42.786Z,20.50
2017-12-04T04:49:42.819Z,22.30
2017-12-04T04:50:42.848Z,22.30
2017-12-04T04:51:42.878Z,23.90
2017-12-04T04:52:42.910Z,21.90
2017-12-04T04:53:42.941Z,22.50
2017-12-04T04:54:42.974Z,20.10
2017-12-04T04:55:43.003Z,23.10
2017-12-04T04:56:43.034Z,19.40
2017-12-04T04:57:43.064Z,21.50
2017-12-04T04:58:43.094Z,21.90
2017-12-04T04:59:43.132Z,23.20
2017-12-04T05:00:43.155Z,23.10
2017-12-04T05:01:43.187Z,21.60
2017-12-04T05:02:43.218Z,23.90
2017-12-04T05:03:43.247Z,21.30
2017-12-04T05:04:43.281Z,21.90
2017-12-04T05:05:43.312Z,21.60
2017-12-04T05:06:43.341Z,22.60
2017-12-04T05:07:43.376Z,21.50
2017-12-04T05:08:43.407Z,22.00
2017-12-04T05:09:43.435Z,23.80
2017-12-04T05:10:43.466Z,23.40
2017-12-04T05:11:43.496Z,21.10
2017-12-04T05:12:43.538Z,27.00
2017-12-04T05:13:43.556Z,24.40
2017-12-04T05:14:43.717Z,22.30
2017-12-04T05:15:43.621Z,24.00
2017-12-04T05:16:43.661Z,25.20
2017-12-04T05:17:43.681Z,25.80
2017-12-04T05:18:43.710Z,25.20
2017-12-04T05:19:43.741Z,25.40
2017-12-04T05:20:43.778Z,24.60
2017-12-04T05:21:43.806Z,27.20
2017-12-04T05:22:43.836Z,28.20
2017-12-04T05:23:43.865Z,27.00
2017-12-04T05:24:43.896Z,29.10
2017-12-04T05:25:44.251Z,28.80
2017-12-04T05:26:43.956Z,26.90
2017-12-04T05:27:43.990Z,30.40
2017-12-04T05:28:44.016Z,28.30
2017-12-04T05:29:44.050Z,29.60
2017-12-04T05:30:44.079Z,26.90
2017-12-04T05:31:44.112Z,31.50
2017-12-04T05:32:44.143Z,30.90
2017-12-04T05:33:44.177Z,28.10
2017-12-04T05:34:44.299Z,25.70
2017-12-04T05:35:44.237Z,27.70
2017-12-04T05:36:44.321Z,29.90
2017-12-04T05:37:44.295Z,28.40
2017-12-04T05:38:44.327Z,29.10
2017-12-04T05:39:44.365Z,28.60
2017-12-04T05:40:44.387Z,29.20
2017-12-04T05:41:44.417Z,32.50
2017-12-04T05:42:44.456Z,27.90
2017-12-04T05:43:44.480Z,29.20
2017-12-04T05:44:44.511Z,27.70
2017-12-04T05:45:44.550Z,28.80
2017-12-04T05:46:44.583Z,33.70
2017-12-04T05:47:44.608Z,28.20
2017-12-04T05:48:44.634Z,27.70
2017-12-04T05:49:44.668Z,25.90
2017-12-04T05:50:44.698Z,27.40
2017-12-04T05:51:44.727Z,26.70
2017-12-04T05:52:44.758Z,28.30
2017-12-04T05:53:44.788Z,29.30
2017-12-04T05:54:44.820Z,26.10
2017-12-04T05:55:44.850Z,27.10
2017-12-04T05:56:44.889Z,25.20
2017-12-04T05:57:44.912Z,27.90
2017-12-04T05:58:44.942Z,25.80
2017-12-04T05:59:44.976Z,24.10
2017-12-04T06:00:45.012Z,23.50
2017-12-04T06:01:45.034Z,24.10
2017-12-04T06:02:45.064Z,22.70
2017-12-04T06:03:45.101Z,23.80
2017-12-04T06:04:45.131Z,23.00
2017-12-04T06:05:45.158Z,22.30
2017-12-04T06:06:45.191Z,23.90
2017-12-04T06:07:45.219Z,23.80
2017-12-04T06:08:45.249Z,23.10
2017-12-04T06:09:45.281Z,21.20
2017-12-04T06:10:45.312Z,20.50
2017-12-04T06:11:45.348Z,28.50
2017-12-04T06:12:45.375Z,23.00
2017-12-04T06:13:45.410Z,25.30
2017-12-04T06:14:45.434Z,24.70
2017-12-04T06:15:45.469Z,24.80
2017-12-04T06:16:45.511Z,25.40
2017-12-04T06:17:45.530Z,27.20
2017-12-04T06:18:45.559Z,28.70
2017-12-04T06:19:45.592Z,32.40
2017-12-04T06:20:45.620Z,28.50
2017-12-04T06:21:45.652Z,29.40
2017-12-04T06:22:45.683Z,25.90
2017-12-04T06:23:45.713Z,24.20
2017-12-04T06:24:45.751Z,23.30
2017-12-04T06:25:45.880Z,24.60
2017-12-04T06:26:45.804Z,22.70
2017-12-04T06:27:45.840Z,22.30
2017-12-04T06:28:45.876Z,20.30
2017-12-04T06:29:45.905Z,21.50
2017-12-04T06:30:45.931Z,24.40
2017-12-04T06:31:45.968Z,23.40
2017-12-04T06:32:45.997Z,24.50
2017-12-04T06:33:46.023Z,25.60
2017-12-04T06:34:46.100Z,27.40
2017-12-04T06:35:46.086Z,22.70
2017-12-04T06:36:46.117Z,24.90
2017-12-04T06:37:46.145Z,22.40
2017-12-04T06:38:46.197Z,25.80
2017-12-04T06:39:46.223Z,25.30
2017-12-04T06:40:46.240Z,22.20
2017-12-04T06:41:46.277Z,22.40
2017-12-04T06:42:46.300Z,23.20
2017-12-04T06:43:46.343Z,23.60
2017-12-04T06:44:46.361Z,29.90
2017-12-04T06:45:46.454Z,25.30
2017-12-04T06:46:46.423Z,25.00
2017-12-04T06:47:46.459Z,24.20
2017-12-04T06:48:46.484Z,24.10
2017-12-04T06:49:46.517Z,23.20
2017-12-04T06:50:46.546Z,26.20
2017-12-04T06:51:46.577Z,28.00
2017-12-04T06:52:46.607Z,28.10
2017-12-04T06:53:46.641Z,27.20
2017-12-04T06:54:46.673Z,29.30
2017-12-04T06:55:46.702Z,28.40
2017-12-04T06:56:46.732Z,30.70
2017-12-04T06:57:46.762Z,29.80
2017-12-04T06:58:46.795Z,28.90
2017-12-04T06:59:46.824Z,28.70
2017-12-04T07:00:46.862Z,29.00
2017-12-04T07:01:46.885Z,32.50
2017-12-04T07:02:46.917Z,29.00
2017-12-04T07:03:46.946Z,28.40
2017-12-04T07:04:46.978Z,29.40
2017-12-04T07:05:47.013Z,28.80
2017-12-04T07:06:47.042Z,34.20
2017-12-04T07:07:47.073Z,31.10
2017-12-04T07:08:47.103Z,29.50
2017-12-04T07:09:47.134Z,30.40
2017-12-04T07:10:47.165Z,31.40
2017-12-04T07:11:47.197Z,31.30
2017-12-04T07:12:47.226Z,30.40
2017-12-04T07:13:47.256Z,30.20
2017-12-04T07:14:47.289Z,30.60
2017-12-04T07:15:47.318Z,30.70
2017-12-04T07:16:47.349Z,29.30
2017-12-04T07:17:47.381Z,30.40
2017-12-04T07:18:47.413Z,27.80
2017-12-04T07:19:47.443Z,30.30
2017-12-04T07:20:47.474Z,31.90
2017-12-04T07:21:47.506Z,34.80
2017-12-04T07:22:47.535Z,35.10
2017-12-04T07:23:47.587Z,32.10
2017-12-04T07:24:47.594Z,34.10
2017-12-04T07:25:47.627Z,34.20
2017-12-04T07:26:47.657Z,30.60
2017-12-04T07:27:47.695Z,33.60
2017-12-04T07:28:47.718Z,31.10
2017-12-04T07:29:47.749Z,31.70
2017-12-04T07:30:47.779Z,29.40
2017-12-04T07:31:47.816Z,27.20
2017-12-04T07:32:47.842Z,25.90
2017-12-04T07:33:47.874Z,28.20
2017-12-04T07:34:48.015Z,27.60
2017-12-04T07:35:47.934Z,24.30
2017-12-04T07:36:47.968Z,26.10
2017-12-04T07:37:47.999Z,25.10
2017-12-04T07:38:48.027Z,27.80
2017-12-04T07:39:48.057Z,26.50
2017-12-04T07:40:48.094Z,26.10
2017-12-04T07:41:48.120Z,28.30
2017-12-04T07:42:48.152Z,27.70
2017-12-04T07:43:48.277Z,27.00
2017-12-04T07:44:48.216Z,27.50
2017-12-04T07:45:48.295Z,29.40
2017-12-04T07:46:48.275Z,23.60
2017-12-04T07:47:48.305Z,27.20
2017-12-04T07:48:48.338Z,26.80
2017-12-04T07:49:48.367Z,26.40
2017-12-04T07:50:48.397Z,28.50
2017-12-04T07:51:48.430Z,26.30
2017-12-04T07:52:48.461Z,28.80
2017-12-04T07:53:48.495Z,26.40
2017-12-04T07:54:48.531Z,25.00
2017-12-04T07:55:48.555Z,23.10
2017-12-04T07:56:48.586Z,24.60
2017-12-04T07:57:48.616Z,26.20
2017-12-04T07:58:48.647Z,23.90
2017-12-04T07:59:48.686Z,28.10
2017-12-04T08:00:48.709Z,25.50
2017-12-04T08:01:48.738Z,27.30
2017-12-04T08:02:48.770Z,26.40
2017-12-04T08:03:48.802Z,29.60
2017-12-04T08:04:48.836Z,29.30
2017-12-04T08:05:48.860Z,30.90
2017-12-04T08:06:48.895Z,27.50
2017-12-04T08:07:48.923Z,26.50
2017-12-04T08:08:48.956Z,28.00
2017-12-04T08:09:48.985Z,27.40
2017-12-04T08:10:49.017Z,25.60
2017-12-04T08:11:49.050Z,23.90
2017-12-04T08:12:49.081Z,25.80
2017-12-04T08:13:49.111Z,29.10
2017-12-04T08:14:49.142Z,25.10
2017-12-04T08:15:49.172Z,24.30
2017-12-04T08:16:49.202Z,22.40
2017-12-04T08:17:49.236Z,24.30
2017-12-04T08:18:49.268Z,22.20
2017-12-04T08:19:49.297Z,25.00
2017-12-04T08:20:49.328Z,22.00
2017-12-04T08:21:49.358Z,20.70
2017-12-04T08:22:49.392Z,22.10
2017-12-04T08:23:49.873Z,19.10
2017-12-04T08:24:49.458Z,21.60
2017-12-04T08:25:49.484Z,21.50
2017-12-04T08:26:49.517Z,23.10
2017-12-04T08:27:49.547Z,21.60
2017-12-04T08:28:49.578Z,22.80
2017-12-04T08:29:49.610Z,23.20
2017-12-04T08:30:49.637Z,23.70
2017-12-04T08:31:49.671Z,22.30
2017-12-04T08:32:49.774Z,20.90
2017-12-04T08:33:49.735Z,21.90
2017-12-04T08:34:49.776Z,22.60
2017-12-04T08:35:49.811Z,23.20
2017-12-04T08:36:49.829Z,22.10
2017-12-04T08:37:49.858Z,24.30
2017-12-04T08:38:49.888Z,19.30
2017-12-04T08:39:49.920Z,19.90
2017-12-04T08:40:49.953Z,22.40
2017-12-04T08:41:49.982Z,26.40
2017-12-04T08:42:50.013Z,18.50
2017-12-04T08:43:50.116Z,19.00
2017-12-04T08:44:50.078Z,19.70
2017-12-04T08:45:50.108Z,23.40
2017-12-04T08:46:50.142Z,22.10
2017-12-04T08:47:50.170Z,24.80
2017-12-04T08:48:50.200Z,24.10
2017-12-04T08:49:50.233Z,21.20
2017-12-04T08:50:50.264Z,19.90
2017-12-04T08:51:50.299Z,18.80
2017-12-04T08:52:50.401Z,16.20
2017-12-04T08:53:50.368Z,16.90
2017-12-04T08:54:50.393Z,16.90
2017-12-04T08:55:50.424Z,14.90
2017-12-04T08:56:50.454Z,15.10
2017-12-04T08:57:50.484Z,18.00
2017-12-04T08:58:50.521Z,16.60
2017-12-04T08:59:50.552Z,18.20
2017-12-04T09:00:50.582Z,16.50
2017-12-04T09:01:50.612Z,18.10
2017-12-04T09:02:50.646Z,17.70
2017-12-04T09:03:50.674Z,16.30
2017-12-04T09:04:50.711Z,16.20
2017-12-04T09:05:50.739Z,17.30
2017-12-04T09:06:50.771Z,15.10
2017-12-04T09:07:50.802Z,16.60
2017-12-04T09:08:50.832Z,15.50
2017-12-04T09:09:50.865Z,17.50
2017-12-04T09:10:50.896Z,17.30
2017-12-04T09:11:50.932Z,17.50
2017-12-04T09:12:50.960Z,16.80
2017-12-04T09:13:50.992Z,16.40
2017-12-04T09:14:51.023Z,17.00
2017-12-04T09:15:51.055Z,16.50
2017-12-04T09:16:51.086Z,17.50
2017-12-04T09:17:51.122Z,15.90
2017-12-04T09:18:51.152Z,16.60
2017-12-04T09:19:51.187Z,16.60
2017-12-04T09:20:51.214Z,17.40
2017-12-04T09:21:51.246Z,16.40
2017-12-04T09:22:51.276Z,18.50
2017-12-04T09:23:51.311Z,16.30
2017-12-04T09:24:51.340Z,17.70
2017-12-04T09:25:51.381Z,16.80
2017-12-04T09:26:51.404Z,16.30
2017-12-04T09:27:51.437Z,16.10
2017-12-04T09:28:51.467Z,19.10
2017-12-04T09:29:51.499Z,17.30
2017-12-04T09:30:51.540Z,18.80
2017-12-04T09:31:51.582Z,16.50
2017-12-04T09:32:51.594Z,16.10
2017-12-04T09:33:51.623Z,13.40
2017-12-04T09:34:51.657Z,15.60
2017-12-04T09:35:51.704Z,15.60
2017-12-04T09:36:51.725Z,14.10
2017-12-04T09:37:51.758Z,15.50
2017-12-04T09:38:51.787Z,16.10
2017-12-04T09:39:51.817Z,17.20
2017-12-04T09:40:51.848Z,15.50
2017-12-04T09:41:52.284Z,15.70
2017-12-04T09:42:51.914Z,16.50
2017-12-04T09:43:51.945Z,14.60
2017-12-04T09:44:51.992Z,13.80
2017-12-04T09:45:52.006Z,13.60
2017-12-04T09:46:52.041Z,15.40
2017-12-04T09:47:52.075Z,15.90
2017-12-04T09:48:52.105Z,12.90
2017-12-04T09:49:52.135Z,14.80
2017-12-04T09:50:52.501Z,15.80
2017-12-04T09:51:52.207Z,14.20
2017-12-04T09:52:52.297Z,16.50
2017-12-04T09:53:52.281Z,40.60
2017-12-04T09:54:52.293Z,27.40
2017-12-04T09:55:52.326Z,27.40
2017-12-04T09:56:52.355Z,24.50
2017-12-04T09:57:52.419Z,22.10
2017-12-04T09:58:52.423Z,19.80
2017-12-04T09:59:52.453Z,25.50
2017-12-04T10:00:52.487Z,23.30
2017-12-04T10:01:52.551Z,20.50
2017-12-04T10:02:52.548Z,19.70
2017-12-04T10:03:52.583Z,23.40
2017-12-04T10:04:52.614Z,23.70
2017-12-04T10:05:52.644Z,21.70
2017-12-04T10:06:52.677Z,20.40
2017-12-04T10:07:52.706Z,17.80
2017-12-04T10:08:52.738Z,20.00
2017-12-04T10:09:52.772Z,16.10
2017-12-04T10:10:52.804Z,15.90
2017-12-04T10:11:52.836Z,14.20
2017-12-04T10:12:52.867Z,14.70
2017-12-04T10:13:52.899Z,17.30
2017-12-04T10:14:52.935Z,18.00
2017-12-04T10:15:52.970Z,16.60
2017-12-04T10:16:52.994Z,14.80
2017-12-04T10:17:53.029Z,17.30
2017-12-04T10:18:53.060Z,16.90
2017-12-04T10:19:53.094Z,15.70
2017-12-04T10:20:53.126Z,14.20
2017-12-04T10:21:53.154Z,13.80
2017-12-04T10:22:53.198Z,15.00
2017-12-04T10:23:53.221Z,14.10
2017-12-04T10:24:53.263Z,13.10
2017-12-04T10:25:53.287Z,14.30
2017-12-04T10:26:53.316Z,13.10
2017-12-04T10:27:53.357Z,13.70
2017-12-04T10:28:53.381Z,13.10
2017-12-04T10:29:53.413Z,12.50
2017-12-04T10:30:53.446Z,11.80
2017-12-04T10:31:53.479Z,12.20
2017-12-04T10:32:53.509Z,15.10
2017-12-04T10:33:53.539Z,14.90
2017-12-04T10:34:53.574Z,14.40
2017-12-04T10:35:53.604Z,14.00
2017-12-04T10:36:53.648Z,14.00
2017-12-04T10:37:53.670Z,12.40
2017-12-04T10:38:53.701Z,13.50
2017-12-04T10:39:53.800Z,15.30
2017-12-04T10:40:53.767Z,14.80
2017-12-04T10:41:53.849Z,14.70
2017-12-04T10:42:53.831Z,15.10
2017-12-04T10:43:53.864Z,12.90
2017-12-04T10:44:53.903Z,14.20
2017-12-04T10:45:53.926Z,14.70
2017-12-04T10:46:53.962Z,14.20
2017-12-04T10:47:54.000Z,15.10
2017-12-04T10:48:54.052Z,12.70
2017-12-04T10:49:54.060Z,14.80
2017-12-04T10:50:54.148Z,13.40
2017-12-04T10:51:54.128Z,11.90
2017-12-04T10:52:54.157Z,14.60
2017-12-04T10:53:54.188Z,13.40
2017-12-04T10:54:54.220Z,14.10
2017-12-04T10:55:54.250Z,13.60
2017-12-04T10:56:54.287Z,13.50
2017-12-04T10:57:54.320Z,14.10
2017-12-04T10:58:54.348Z,12.60
2017-12-04T10:59:54.440Z,13.00
2017-12-04T11:00:54.409Z,13.50
2017-12-04T11:01:54.458Z,15.50
2017-12-04T11:02:54.477Z,12.00
2017-12-04T11:03:54.510Z,13.30
2017-12-04T11:04:54.542Z,12.90
2017-12-04T11:05:54.572Z,13.30
2017-12-04T11:06:54.607Z,12.60
2017-12-04T11:07:54.638Z,13.30
2017-12-04T11:08:54.668Z,13.80
2017-12-04T11:09:54.700Z,16.00
2017-12-04T11:10:54.742Z,14.20
2017-12-04T11:11:54.763Z,13.40
2017-12-04T11:12:54.802Z,12.40
2017-12-04T11:13:54.828Z,13.20
2017-12-04T11:14:54.868Z,14.40
2017-12-04T11:15:54.893Z,13.30
2017-12-04T11:16:54.924Z,12.10
2017-12-04T11:17:54.958Z,12.90
2017-12-04T11:18:54.989Z,12.60
2017-12-04T11:19:55.022Z,13.70
2017-12-04T11:20:55.051Z,12.80
2017-12-04T11:21:55.084Z,11.30
2017-12-04T11:22:55.118Z,13.00
2017-12-04T11:23:55.151Z,12.30
2017-12-04T11:24:55.181Z,13.80
2017-12-04T11:25:55.211Z,13.40
2017-12-04T11:26:55.248Z,14.00
2017-12-04T11:27:55.278Z,14.40
2017-12-04T11:28:55.309Z,13.50
2017-12-04T11:29:55.341Z,16.30
2017-12-04T11:30:55.375Z,14.60
2017-12-04T11:31:55.404Z,16.00
2017-12-04T11:32:55.440Z,19.80
2017-12-04T11:33:55.470Z,16.40
2017-12-04T11:34:55.501Z,17.10
2017-12-04T11:35:55.534Z,17.00
2017-12-04T11:36:55.569Z,17.00
2017-12-04T11:37:55.932Z,19.10
2017-12-04T11:38:55.630Z,16.50
2017-12-04T11:39:55.663Z,16.40
2017-12-04T11:40:55.695Z,14.90
2017-12-04T11:41:55.728Z,14.70
2017-12-04T11:42:55.759Z,16.00
2017-12-04T11:43:55.828Z,16.80
2017-12-04T11:44:55.823Z,15.70
2017-12-04T11:45:55.857Z,16.80
2017-12-04T11:46:55.891Z,14.10
2017-12-04T11:47:55.921Z,13.40
2017-12-04T11:48:55.962Z,14.70
2017-12-04T11:49:55.984Z,15.50
2017-12-04T11:50:56.021Z,13.60
2017-12-04T11:51:56.050Z,12.80
2017-12-04T11:52:56.080Z,13.50
2017-12-04T11:53:56.111Z,14.00
2017-12-04T11:54:56.144Z,15.50
2017-12-04T11:55:56.175Z,13.90
2017-12-04T11:56:56.211Z,13.20
2017-12-04T11:57:56.342Z,13.70
2017-12-04T11:58:56.272Z,14.70
2017-12-04T11:59:56.318Z,16.90
2017-12-04T12:00:56.336Z,15.80
2017-12-04T12:01:56.371Z,14.40
2017-12-04T12:02:56.413Z,16.10
2017-12-04T12:03:56.433Z,16.30
2017-12-04T12:04:56.470Z,19.00
2017-12-04T12:05:56.501Z,14.10
2017-12-04T12:06:56.667Z,18.30
2017-12-04T12:07:56.565Z,20.00
2017-12-04T12:08:56.608Z,17.80
2017-12-04T12:09:56.631Z,14.10
2017-12-04T12:10:56.681Z,14.30
2017-12-04T12:11:56.693Z,14.00
2017-12-04T12:12:56.729Z,11.60
2017-12-04T12:13:56.761Z,12.20
2017-12-04T12:14:56.799Z,15.10
2017-12-04T12:15:56.827Z,13.20
2017-12-04T12:16:56.866Z,14.40
2017-12-04T12:17:56.892Z,11.70
2017-12-04T12:18:56.923Z,10.40
2017-12-04T12:19:56.956Z,11.60
2017-12-04T12:20:56.993Z,12.10
2017-12-04T12:21:57.022Z,13.00
2017-12-04T12:22:57.054Z,11.40
2017-12-04T12:23:57.088Z,13.20
2017-12-04T12:24:57.123Z,10.50
2017-12-04T12:25:57.152Z,13.60
2017-12-04T12:26:57.185Z,13.20
2017-12-04T12:27:57.223Z,11.60
2017-12-04T12:28:57.252Z,13.00
2017-12-04T12:29:57.284Z,13.20
2017-12-04T12:30:57.317Z,16.70
2017-12-04T12:31:57.366Z,15.00
2017-12-04T12:32:57.382Z,13.90
2017-12-04T12:33:57.416Z,15.10
2017-12-04T12:34:57.448Z,16.10
2017-12-04T12:35:57.484Z,16.30
2017-12-04T12:36:57.512Z,19.20
2017-12-04T12:37:57.546Z,20.70
2017-12-04T12:38:57.583Z,17.60
2017-12-04T12:39:57.613Z,25.70
2017-12-04T12:40:57.645Z,20.30
2017-12-04T12:41:57.678Z,22.00
2017-12-04T12:42:57.711Z,18.70
2017-12-04T12:43:57.747Z,24.70
2017-12-04T12:44:58.118Z,23.70
2017-12-04T12:45:57.811Z,26.10
2017-12-04T12:46:57.856Z,24.80
2017-12-04T12:47:57.876Z,29.10
2017-12-04T12:48:57.909Z,22.50
2017-12-04T12:49:57.951Z,20.60
2017-12-04T12:50:57.975Z,20.50
2017-12-04T12:51:58.008Z,29.10
2017-12-04T12:52:58.044Z,29.10